sensor_id;sensor_type;location;lat;lon;timestamp;P1;durP1;ratioP1;P2;durP2;ratioP2
5762;SDS011;2906;53.282;9.508;2023-02-28T00:00:34;38.22;;;12.55;;
5762;SDS011;2906;53.282;9.508;2023-02-28T00:01:35;29.48;;;9.32;;
5762;SDS011;2906;53.282;9.508;2023-02-28T00:02:38;21.77;;;6.75;;
5762;SDS011;2906;53.282;9.508;2023-02-28T00:03:40;27.67;;;9.55;;
5762;SDS011;2906;53.282;9.508;2023-02-28T00:04:43;26.45;;;8.60;;
5762;SDS011;2906;53.282;9.508;2023-02-28T00:05:45;22.60;;;7.90;;
5762;SDS011;2906;53.282;9.508;2023-02-28T00:06:47;26.10;;;7.65;;
5762;SDS011;2906;53.282;9.508;2023-02-28T00:07:50;22.77;;;7.22;;
5762;SDS011;2906;53.282;9.508;2023-02-28T00:08:51;28.60;;;9.07;;
5762;SDS011;2906;53.282;9.508;2023-02-28T00:09:54;30.58;;;9.77;;
5762;SDS011;2906;53.282;9.508;2023-02-28T00:10:59;35.25;;;10.27;;
5762;SDS011;2906;53.282;9.508;2023-02-28T00:12:02;26.92;;;8.23;;
5762;SDS011;2906;53.282;9.508;2023-02-28T00:13:10;22.73;;;7.40;;
5762;SDS011;2906;53.282;9.508;2023-02-28T00:14:13;26.10;;;6.95;;
5762;SDS011;2906;53.282;9.508;2023-02-28T00:15:14;21.05;;;7.00;;
5762;SDS011;2906;53.282;9.508;2023-02-28T00:16:18;16.02;;;5.03;;
5762;SDS011;2906;53.282;9.508;2023-02-28T00:17:20;16.00;;;4.60;;
5762;SDS011;2906;53.282;9.508;2023-02-28T00:18:22;20.27;;;5.00;;
5762;SDS011;2906;53.282;9.508;2023-02-28T00:19:24;17.67;;;3.70;;
5762;SDS011;2906;53.282;9.508;2023-02-28T00:20:25;18.85;;;4.50;;
5762;SDS011;2906;53.282;9.508;2023-02-28T00:21:28;16.15;;;3.20;;
5762;SDS011;2906;53.282;9.508;2023-02-28T00:22:29;16.23;;;3.47;;
5762;SDS011;2906;53.282;9.508;2023-02-28T00:23:32;16.92;;;3.80;;
5762;SDS011;2906;53.282;9.508;2023-02-28T00:24:33;12.18;;;3.13;;
5762;SDS011;2906;53.282;9.508;2023-02-28T00:25:36;15.55;;;3.45;;
5762;SDS011;2906;53.282;9.508;2023-02-28T00:26:38;13.60;;;3.08;;
5762;SDS011;2906;53.282;9.508;2023-02-28T00:27:41;12.27;;;3.40;;
5762;SDS011;2906;53.282;9.508;2023-02-28T00:28:43;11.48;;;3.38;;
5762;SDS011;2906;53.282;9.508;2023-02-28T00:29:46;13.82;;;3.45;;
5762;SDS011;2906;53.282;9.508;2023-02-28T00:30:47;14.60;;;4.63;;
5762;SDS011;2906;53.282;9.508;2023-02-28T00:31:50;13.63;;;3.08;;
5762;SDS011;2906;53.282;9.508;2023-02-28T00:32:52;19.40;;;3.60;;
5762;SDS011;2906;53.282;9.508;2023-02-28T00:33:54;13.77;;;4.05;;
5762;SDS011;2906;53.282;9.508;2023-02-28T00:34:59;13.45;;;3.70;;
5762;SDS011;2906;53.282;9.508;2023-02-28T00:36:01;15.93;;;3.80;;
5762;SDS011;2906;53.282;9.508;2023-02-28T00:37:04;17.42;;;3.50;;
5762;SDS011;2906;53.282;9.508;2023-02-28T00:38:05;15.43;;;3.50;;
5762;SDS011;2906;53.282;9.508;2023-02-28T00:39:08;12.13;;;3.40;;
5762;SDS011;2906;53.282;9.508;2023-02-28T00:40:10;13.45;;;3.00;;
5762;SDS011;2906;53.282;9.508;2023-02-28T00:41:12;13.63;;;3.40;;
5762;SDS011;2906;53.282;9.508;2023-02-28T00:42:18;11.10;;;2.92;;
5762;SDS011;2906;53.282;9.508;2023-02-28T00:43:21;12.23;;;3.42;;
5762;SDS011;2906;53.282;9.508;2023-02-28T00:44:24;15.13;;;3.90;;
5762;SDS011;2906;53.282;9.508;2023-02-28T00:45:26;17.95;;;4.28;;
5762;SDS011;2906;53.282;9.508;2023-02-28T00:46:27;12.57;;;3.00;;
5762;SDS011;2906;53.282;9.508;2023-02-28T00:47:31;13.93;;;3.38;;
5762;SDS011;2906;53.282;9.508;2023-02-28T00:48:32;11.25;;;2.65;;
5762;SDS011;2906;53.282;9.508;2023-02-28T00:49:34;11.13;;;2.90;;
5762;SDS011;2906;53.282;9.508;2023-02-28T00:50:36;12.52;;;3.20;;
5762;SDS011;2906;53.282;9.508;2023-02-28T00:51:38;10.45;;;2.90;;
5762;SDS011;2906;53.282;9.508;2023-02-28T00:52:39;13.13;;;3.10;;
5762;SDS011;2906;53.282;9.508;2023-02-28T00:53:42;11.02;;;3.05;;
5762;SDS011;2906;53.282;9.508;2023-02-28T00:54:43;13.40;;;3.10;;
5762;SDS011;2906;53.282;9.508;2023-02-28T00:55:45;12.57;;;3.30;;
5762;SDS011;2906;53.282;9.508;2023-02-28T00:56:46;11.50;;;3.00;;
5762;SDS011;2906;53.282;9.508;2023-02-28T00:57:50;12.13;;;2.85;;
5762;SDS011;2906;53.282;9.508;2023-02-28T00:58:51;14.82;;;2.92;;
5762;SDS011;2906;53.282;9.508;2023-02-28T00:59:54;15.50;;;3.25;;
5762;SDS011;2906;53.282;9.508;2023-02-28T01:00:55;10.45;;;3.00;;
5762;SDS011;2906;53.282;9.508;2023-02-28T01:01:57;16.85;;;3.83;;
5762;SDS011;2906;53.282;9.508;2023-02-28T01:02:59;17.33;;;3.30;;
5762;SDS011;2906;53.282;9.508;2023-02-28T01:04:02;10.48;;;2.65;;
5762;SDS011;2906;53.282;9.508;2023-02-28T01:05:03;10.07;;;2.83;;
5762;SDS011;2906;53.282;9.508;2023-02-28T01:06:06;12.30;;;3.05;;
5762;SDS011;2906;53.282;9.508;2023-02-28T01:07:09;11.57;;;2.70;;
5762;SDS011;2906;53.282;9.508;2023-02-28T01:08:10;11.82;;;2.70;;
5762;SDS011;2906;53.282;9.508;2023-02-28T01:09:13;13.05;;;2.90;;
5762;SDS011;2906;53.282;9.508;2023-02-28T01:10:15;17.40;;;3.35;;
5762;SDS011;2906;53.282;9.508;2023-02-28T01:11:18;12.02;;;2.80;;
5762;SDS011;2906;53.282;9.508;2023-02-28T01:12:19;11.18;;;3.00;;
5762;SDS011;2906;53.282;9.508;2023-02-28T01:13:24;13.27;;;2.92;;
5762;SDS011;2906;53.282;9.508;2023-02-28T01:14:26;13.27;;;3.60;;
5762;SDS011;2906;53.282;9.508;2023-02-28T01:15:28;11.70;;;2.97;;
5762;SDS011;2906;53.282;9.508;2023-02-28T01:16:32;13.50;;;2.97;;
5762;SDS011;2906;53.282;9.508;2023-02-28T01:17:34;10.90;;;2.65;;
5762;SDS011;2906;53.282;9.508;2023-02-28T01:18:36;9.95;;;2.70;;
5762;SDS011;2906;53.282;9.508;2023-02-28T01:19:40;11.40;;;2.80;;
5762;SDS011;2906;53.282;9.508;2023-02-28T01:20:41;12.57;;;2.50;;
5762;SDS011;2906;53.282;9.508;2023-02-28T01:21:44;12.57;;;2.65;;
5762;SDS011;2906;53.282;9.508;2023-02-28T01:22:46;9.35;;;2.28;;
5762;SDS011;2906;53.282;9.508;2023-02-28T01:23:50;12.57;;;2.28;;
5762;SDS011;2906;53.282;9.508;2023-02-28T01:24:51;11.20;;;2.65;;
5762;SDS011;2906;53.282;9.508;2023-02-28T01:25:54;10.55;;;2.65;;
5762;SDS011;2906;53.282;9.508;2023-02-28T01:26:55;16.00;;;2.83;;
5762;SDS011;2906;53.282;9.508;2023-02-28T01:27:57;11.15;;;2.42;;
5762;SDS011;2906;53.282;9.508;2023-02-28T01:29:00;9.23;;;2.00;;
5762;SDS011;2906;53.282;9.508;2023-02-28T01:30:02;9.23;;;2.20;;
5762;SDS011;2906;53.282;9.508;2023-02-28T01:31:04;13.63;;;2.35;;
5762;SDS011;2906;53.282;9.508;2023-02-28T01:32:06;16.23;;;2.40;;
5762;SDS011;2906;53.282;9.508;2023-02-28T01:33:08;13.70;;;2.38;;
5762;SDS011;2906;53.282;9.508;2023-02-28T01:34:10;11.90;;;3.08;;
5762;SDS011;2906;53.282;9.508;2023-02-28T01:35:12;19.25;;;3.40;;
5762;SDS011;2906;53.282;9.508;2023-02-28T01:36:15;14.50;;;2.63;;
5762;SDS011;2906;53.282;9.508;2023-02-28T01:37:17;11.38;;;2.83;;
5762;SDS011;2906;53.282;9.508;2023-02-28T01:38:19;10.85;;;2.50;;
5762;SDS011;2906;53.282;9.508;2023-02-28T01:39:20;12.32;;;2.40;;
5762;SDS011;2906;53.282;9.508;2023-02-28T01:40:23;10.15;;;2.20;;
5762;SDS011;2906;53.282;9.508;2023-02-28T01:41:25;12.40;;;2.53;;
5762;SDS011;2906;53.282;9.508;2023-02-28T01:42:28;10.43;;;2.40;;
5762;SDS011;2906;53.282;9.508;2023-02-28T01:43:30;11.95;;;2.40;;
5762;SDS011;2906;53.282;9.508;2023-02-28T01:45:49;12.05;;;2.50;;
5762;SDS011;2906;53.282;9.508;2023-02-28T01:46:52;12.25;;;2.60;;
5762;SDS011;2906;53.282;9.508;2023-02-28T01:47:54;10.57;;;2.25;;
5762;SDS011;2906;53.282;9.508;2023-02-28T01:49:00;9.90;;;2.22;;
5762;SDS011;2906;53.282;9.508;2023-02-28T01:50:03;10.95;;;2.63;;
5762;SDS011;2906;53.282;9.508;2023-02-28T01:51:08;11.73;;;2.38;;
5762;SDS011;2906;53.282;9.508;2023-02-28T01:52:11;15.05;;;2.20;;
5762;SDS011;2906;53.282;9.508;2023-02-28T01:53:16;11.23;;;2.20;;
5762;SDS011;2906;53.282;9.508;2023-02-28T01:54:20;11.68;;;2.30;;
5762;SDS011;2906;53.282;9.508;2023-02-28T01:55:22;11.95;;;2.03;;
5762;SDS011;2906;53.282;9.508;2023-02-28T01:56:29;12.75;;;2.65;;
5762;SDS011;2906;53.282;9.508;2023-02-28T01:57:32;11.57;;;2.38;;
5762;SDS011;2906;53.282;9.508;2023-02-28T01:58:37;12.65;;;2.20;;
5762;SDS011;2906;53.282;9.508;2023-02-28T01:59:41;10.00;;;2.42;;
5762;SDS011;2906;53.282;9.508;2023-02-28T02:00:45;12.80;;;2.15;;
5762;SDS011;2906;53.282;9.508;2023-02-28T02:01:49;12.75;;;2.78;;
5762;SDS011;2906;53.282;9.508;2023-02-28T02:02:51;10.98;;;3.00;;
5762;SDS011;2906;53.282;9.508;2023-02-28T02:03:56;15.45;;;2.30;;
5762;SDS011;2906;53.282;9.508;2023-02-28T02:04:59;9.70;;;1.92;;
5762;SDS011;2906;53.282;9.508;2023-02-28T02:06:04;12.15;;;2.25;;
5762;SDS011;2906;53.282;9.508;2023-02-28T02:07:06;8.90;;;2.10;;
5762;SDS011;2906;53.282;9.508;2023-02-28T02:08:10;12.18;;;2.78;;
5762;SDS011;2906;53.282;9.508;2023-02-28T02:09:12;10.80;;;2.22;;
5762;SDS011;2906;53.282;9.508;2023-02-28T02:10:15;10.95;;;2.30;;
5762;SDS011;2906;53.282;9.508;2023-02-28T02:11:18;16.38;;;2.65;;
5762;SDS011;2906;53.282;9.508;2023-02-28T02:12:23;10.55;;;2.85;;
5762;SDS011;2906;53.282;9.508;2023-02-28T02:14:50;13.60;;;2.90;;
5762;SDS011;2906;53.282;9.508;2023-02-28T02:15:56;11.43;;;2.92;;
5762;SDS011;2906;53.282;9.508;2023-02-28T02:17:07;8.75;;;1.92;;
5762;SDS011;2906;53.282;9.508;2023-02-28T02:18:13;12.38;;;2.58;;
5762;SDS011;2906;53.282;9.508;2023-02-28T02:19:27;11.20;;;2.00;;
5762;SDS011;2906;53.282;9.508;2023-02-28T02:24:40;8.48;;;2.00;;
5762;SDS011;2906;53.282;9.508;2023-02-28T02:25:49;11.40;;;2.35;;
5762;SDS011;2906;53.282;9.508;2023-02-28T02:26:55;11.73;;;2.13;;
5762;SDS011;2906;53.282;9.508;2023-02-28T02:28:05;10.52;;;2.00;;
5762;SDS011;2906;53.282;9.508;2023-02-28T02:30:43;11.35;;;2.10;;
5762;SDS011;2906;53.282;9.508;2023-02-28T02:31:52;10.02;;;2.38;;
5762;SDS011;2906;53.282;9.508;2023-02-28T02:33:03;10.48;;;2.13;;
5762;SDS011;2906;53.282;9.508;2023-02-28T02:35:26;9.75;;;2.33;;
5762;SDS011;2906;53.282;9.508;2023-02-28T02:36:30;8.35;;;2.10;;
5762;SDS011;2906;53.282;9.508;2023-02-28T02:37:36;8.90;;;2.20;;
5762;SDS011;2906;53.282;9.508;2023-02-28T02:38:43;7.72;;;1.70;;
5762;SDS011;2906;53.282;9.508;2023-02-28T02:39:50;11.50;;;2.17;;
5762;SDS011;2906;53.282;9.508;2023-02-28T02:40:57;11.30;;;2.20;;
5762;SDS011;2906;53.282;9.508;2023-02-28T02:42:01;8.85;;;2.05;;
5762;SDS011;2906;53.282;9.508;2023-02-28T02:43:09;10.55;;;2.28;;
5762;SDS011;2906;53.282;9.508;2023-02-28T02:44:15;13.00;;;2.35;;
5762;SDS011;2906;53.282;9.508;2023-02-28T02:45:22;17.13;;;2.33;;
5762;SDS011;2906;53.282;9.508;2023-02-28T02:46:27;9.52;;;2.15;;
5762;SDS011;2906;53.282;9.508;2023-02-28T02:47:32;12.35;;;3.13;;
5762;SDS011;2906;53.282;9.508;2023-02-28T02:48:36;9.60;;;2.10;;
5762;SDS011;2906;53.282;9.508;2023-02-28T02:49:42;9.80;;;2.05;;
5762;SDS011;2906;53.282;9.508;2023-02-28T02:50:55;10.98;;;2.30;;
5762;SDS011;2906;53.282;9.508;2023-02-28T02:52:00;7.85;;;1.92;;
5762;SDS011;2906;53.282;9.508;2023-02-28T02:53:03;12.95;;;2.30;;
5762;SDS011;2906;53.282;9.508;2023-02-28T02:54:08;10.35;;;2.72;;
5762;SDS011;2906;53.282;9.508;2023-02-28T02:55:09;9.27;;;2.13;;
5762;SDS011;2906;53.282;9.508;2023-02-28T02:56:13;12.48;;;2.72;;
5762;SDS011;2906;53.282;9.508;2023-02-28T02:57:16;13.77;;;2.70;;
5762;SDS011;2906;53.282;9.508;2023-02-28T02:58:22;7.75;;;1.65;;
5762;SDS011;2906;53.282;9.508;2023-02-28T02:59:25;8.20;;;1.98;;
5762;SDS011;2906;53.282;9.508;2023-02-28T03:00:30;13.32;;;2.60;;
5762;SDS011;2906;53.282;9.508;2023-02-28T03:01:32;9.32;;;2.28;;
5762;SDS011;2906;53.282;9.508;2023-02-28T03:02:36;14.25;;;2.20;;
5762;SDS011;2906;53.282;9.508;2023-02-28T03:03:38;10.25;;;2.40;;
5762;SDS011;2906;53.282;9.508;2023-02-28T03:04:42;9.10;;;2.33;;
5762;SDS011;2906;53.282;9.508;2023-02-28T03:05:47;11.05;;;2.00;;
5762;SDS011;2906;53.282;9.508;2023-02-28T03:06:50;9.48;;;2.17;;
5762;SDS011;2906;53.282;9.508;2023-02-28T03:07:54;13.27;;;2.90;;
5762;SDS011;2906;53.282;9.508;2023-02-28T03:08:57;10.90;;;2.35;;
5762;SDS011;2906;53.282;9.508;2023-02-28T03:10:00;9.55;;;2.25;;
5762;SDS011;2906;53.282;9.508;2023-02-28T03:11:04;7.90;;;2.20;;
5762;SDS011;2906;53.282;9.508;2023-02-28T03:12:09;10.65;;;2.45;;
5762;SDS011;2906;53.282;9.508;2023-02-28T03:13:22;11.20;;;2.88;;
5762;SDS011;2906;53.282;9.508;2023-02-28T03:14:30;10.35;;;2.58;;
5762;SDS011;2906;53.282;9.508;2023-02-28T03:15:37;16.60;;;2.75;;
5762;SDS011;2906;53.282;9.508;2023-02-28T03:16:46;10.02;;;2.55;;
5762;SDS011;2906;53.282;9.508;2023-02-28T03:17:56;7.35;;;2.00;;
5762;SDS011;2906;53.282;9.508;2023-02-28T03:19:02;9.18;;;1.95;;
5762;SDS011;2906;53.282;9.508;2023-02-28T03:20:12;8.50;;;2.42;;
5762;SDS011;2906;53.282;9.508;2023-02-28T03:21:20;8.70;;;2.20;;
5762;SDS011;2906;53.282;9.508;2023-02-28T03:22:30;9.20;;;2.47;;
5762;SDS011;2906;53.282;9.508;2023-02-28T03:23:38;10.10;;;2.30;;
5762;SDS011;2906;53.282;9.508;2023-02-28T03:24:45;10.65;;;2.58;;
5762;SDS011;2906;53.282;9.508;2023-02-28T03:25:53;10.15;;;2.33;;
5762;SDS011;2906;53.282;9.508;2023-02-28T03:26:58;10.13;;;2.38;;
5762;SDS011;2906;53.282;9.508;2023-02-28T03:28:02;9.77;;;2.40;;
5762;SDS011;2906;53.282;9.508;2023-02-28T03:29:09;12.02;;;2.33;;
5762;SDS011;2906;53.282;9.508;2023-02-28T03:30:18;8.80;;;2.10;;
5762;SDS011;2906;53.282;9.508;2023-02-28T03:31:26;10.25;;;2.40;;
5762;SDS011;2906;53.282;9.508;2023-02-28T03:32:29;9.60;;;2.22;;
5762;SDS011;2906;53.282;9.508;2023-02-28T03:33:38;9.98;;;2.45;;
5762;SDS011;2906;53.282;9.508;2023-02-28T03:34:41;9.38;;;2.75;;
5762;SDS011;2906;53.282;9.508;2023-02-28T03:35:45;10.88;;;2.53;;
5762;SDS011;2906;53.282;9.508;2023-02-28T03:36:51;10.25;;;2.13;;
5762;SDS011;2906;53.282;9.508;2023-02-28T03:37:55;9.27;;;1.90;;
5762;SDS011;2906;53.282;9.508;2023-02-28T03:39:00;8.68;;;2.17;;
5762;SDS011;2906;53.282;9.508;2023-02-28T03:40:06;11.73;;;2.50;;
5762;SDS011;2906;53.282;9.508;2023-02-28T03:41:10;11.10;;;2.70;;
5762;SDS011;2906;53.282;9.508;2023-02-28T03:42:15;14.65;;;2.55;;
5762;SDS011;2906;53.282;9.508;2023-02-28T03:43:21;8.68;;;2.00;;
5762;SDS011;2906;53.282;9.508;2023-02-28T03:44:25;9.40;;;2.20;;
5762;SDS011;2906;53.282;9.508;2023-02-28T03:45:29;8.20;;;2.10;;
5762;SDS011;2906;53.282;9.508;2023-02-28T03:46:37;12.57;;;2.55;;
5762;SDS011;2906;53.282;9.508;2023-02-28T03:47:41;11.10;;;2.20;;
5762;SDS011;2906;53.282;9.508;2023-02-28T03:48:49;8.13;;;2.15;;
5762;SDS011;2906;53.282;9.508;2023-02-28T03:49:53;10.10;;;2.53;;
5762;SDS011;2906;53.282;9.508;2023-02-28T03:51:00;8.70;;;2.42;;
5762;SDS011;2906;53.282;9.508;2023-02-28T03:52:04;10.50;;;2.67;;
5762;SDS011;2906;53.282;9.508;2023-02-28T03:53:08;12.52;;;2.55;;
5762;SDS011;2906;53.282;9.508;2023-02-28T03:54:12;10.52;;;2.45;;
5762;SDS011;2906;53.282;9.508;2023-02-28T03:55:16;11.18;;;2.70;;
5762;SDS011;2906;53.282;9.508;2023-02-28T03:56:18;9.05;;;2.78;;
5762;SDS011;2906;53.282;9.508;2023-02-28T03:57:23;9.85;;;2.70;;
5762;SDS011;2906;53.282;9.508;2023-02-28T03:58:28;8.40;;;2.20;;
5762;SDS011;2906;53.282;9.508;2023-02-28T03:59:32;10.85;;;2.40;;
5762;SDS011;2906;53.282;9.508;2023-02-28T04:00:35;8.90;;;2.10;;
5762;SDS011;2906;53.282;9.508;2023-02-28T04:01:40;15.55;;;2.58;;
5762;SDS011;2906;53.282;9.508;2023-02-28T04:02:42;10.00;;;2.50;;
5762;SDS011;2906;53.282;9.508;2023-02-28T04:03:44;11.48;;;2.88;;
5762;SDS011;2906;53.282;9.508;2023-02-28T04:04:45;11.95;;;2.10;;
5762;SDS011;2906;53.282;9.508;2023-02-28T04:05:50;9.93;;;2.08;;
5762;SDS011;2906;53.282;9.508;2023-02-28T04:06:52;9.75;;;2.50;;
5762;SDS011;2906;53.282;9.508;2023-02-28T04:07:59;10.73;;;2.50;;
5762;SDS011;2906;53.282;9.508;2023-02-28T04:09:04;9.15;;;1.95;;
5762;SDS011;2906;53.282;9.508;2023-02-28T04:10:07;10.80;;;2.63;;
5762;SDS011;2906;53.282;9.508;2023-02-28T04:11:12;9.82;;;2.50;;
5762;SDS011;2906;53.282;9.508;2023-02-28T04:12:17;8.38;;;2.17;;
5762;SDS011;2906;53.282;9.508;2023-02-28T04:13:18;10.23;;;2.60;;
5762;SDS011;2906;53.282;9.508;2023-02-28T04:14:21;9.73;;;2.20;;
5762;SDS011;2906;53.282;9.508;2023-02-28T04:15:22;9.48;;;2.42;;
5762;SDS011;2906;53.282;9.508;2023-02-28T04:16:27;12.77;;;2.65;;
5762;SDS011;2906;53.282;9.508;2023-02-28T04:17:28;16.88;;;2.45;;
5762;SDS011;2906;53.282;9.508;2023-02-28T04:18:31;9.80;;;2.30;;
5762;SDS011;2906;53.282;9.508;2023-02-28T04:19:33;9.98;;;2.55;;
5762;SDS011;2906;53.282;9.508;2023-02-28T04:20:38;17.77;;;3.13;;
5762;SDS011;2906;53.282;9.508;2023-02-28T04:21:41;10.77;;;2.72;;
5762;SDS011;2906;53.282;9.508;2023-02-28T04:22:43;13.65;;;2.50;;
5762;SDS011;2906;53.282;9.508;2023-02-28T04:23:51;8.82;;;2.33;;
5762;SDS011;2906;53.282;9.508;2023-02-28T04:24:54;9.90;;;2.58;;
5762;SDS011;2906;53.282;9.508;2023-02-28T04:25:55;12.85;;;2.97;;
5762;SDS011;2906;53.282;9.508;2023-02-28T04:26:58;8.73;;;2.38;;
5762;SDS011;2906;53.282;9.508;2023-02-28T04:27:59;12.48;;;2.72;;
5762;SDS011;2906;53.282;9.508;2023-02-28T04:29:02;10.73;;;2.42;;
5762;SDS011;2906;53.282;9.508;2023-02-28T04:30:04;9.25;;;2.20;;
5762;SDS011;2906;53.282;9.508;2023-02-28T04:31:06;10.57;;;2.45;;
5762;SDS011;2906;53.282;9.508;2023-02-28T04:32:08;11.13;;;2.60;;
5762;SDS011;2906;53.282;9.508;2023-02-28T04:33:10;10.80;;;3.10;;
5762;SDS011;2906;53.282;9.508;2023-02-28T04:34:12;16.45;;;2.75;;
5762;SDS011;2906;53.282;9.508;2023-02-28T04:35:14;9.93;;;2.45;;
5762;SDS011;2906;53.282;9.508;2023-02-28T04:36:15;9.90;;;2.60;;
5762;SDS011;2906;53.282;9.508;2023-02-28T04:37:18;9.60;;;3.13;;
5762;SDS011;2906;53.282;9.508;2023-02-28T04:38:20;12.57;;;3.28;;
5762;SDS011;2906;53.282;9.508;2023-02-28T04:39:24;9.10;;;2.50;;
5762;SDS011;2906;53.282;9.508;2023-02-28T04:40:25;11.77;;;2.90;;
5762;SDS011;2906;53.282;9.508;2023-02-28T04:41:27;11.68;;;2.50;;
5762;SDS011;2906;53.282;9.508;2023-02-28T04:42:29;9.60;;;2.95;;
5762;SDS011;2906;53.282;9.508;2023-02-28T04:43:35;19.33;;;2.90;;
5762;SDS011;2906;53.282;9.508;2023-02-28T04:44:36;14.93;;;3.75;;
5762;SDS011;2906;53.282;9.508;2023-02-28T04:45:39;9.82;;;2.70;;
5762;SDS011;2906;53.282;9.508;2023-02-28T04:46:40;13.13;;;3.45;;
5762;SDS011;2906;53.282;9.508;2023-02-28T04:47:43;9.23;;;2.35;;
5762;SDS011;2906;53.282;9.508;2023-02-28T04:48:44;9.90;;;2.80;;
5762;SDS011;2906;53.282;9.508;2023-02-28T04:49:47;14.40;;;2.65;;
5762;SDS011;2906;53.282;9.508;2023-02-28T04:50:48;11.52;;;3.25;;
5762;SDS011;2906;53.282;9.508;2023-02-28T04:51:51;10.93;;;2.88;;
5762;SDS011;2906;53.282;9.508;2023-02-28T04:52:53;10.75;;;2.78;;
5762;SDS011;2906;53.282;9.508;2023-02-28T04:53:55;9.07;;;2.60;;
5762;SDS011;2906;53.282;9.508;2023-02-28T04:54:59;11.50;;;3.05;;
5762;SDS011;2906;53.282;9.508;2023-02-28T04:56:01;10.77;;;2.63;;
5762;SDS011;2906;53.282;9.508;2023-02-28T04:57:03;10.52;;;3.15;;
5762;SDS011;2906;53.282;9.508;2023-02-28T04:58:06;15.32;;;2.55;;
5762;SDS011;2906;53.282;9.508;2023-02-28T04:59:07;10.52;;;3.30;;
5762;SDS011;2906;53.282;9.508;2023-02-28T05:00:10;14.02;;;3.20;;
5762;SDS011;2906;53.282;9.508;2023-02-28T05:01:17;12.23;;;3.00;;
5762;SDS011;2906;53.282;9.508;2023-02-28T05:02:19;9.55;;;2.95;;
5762;SDS011;2906;53.282;9.508;2023-02-28T05:03:23;9.63;;;2.70;;
5762;SDS011;2906;53.282;9.508;2023-02-28T05:04:25;12.02;;;2.75;;
5762;SDS011;2906;53.282;9.508;2023-02-28T05:05:28;12.30;;;2.95;;
5762;SDS011;2906;53.282;9.508;2023-02-28T05:06:30;10.88;;;3.13;;
5762;SDS011;2906;53.282;9.508;2023-02-28T05:07:33;10.25;;;2.25;;
5762;SDS011;2906;53.282;9.508;2023-02-28T05:08:35;9.25;;;3.17;;
5762;SDS011;2906;53.282;9.508;2023-02-28T05:09:38;11.50;;;2.80;;
5762;SDS011;2906;53.282;9.508;2023-02-28T05:10:41;14.13;;;2.70;;
5762;SDS011;2906;53.282;9.508;2023-02-28T05:11:43;9.60;;;3.00;;
5762;SDS011;2906;53.282;9.508;2023-02-28T05:12:45;11.85;;;3.65;;
5762;SDS011;2906;53.282;9.508;2023-02-28T05:13:48;9.05;;;2.63;;
5762;SDS011;2906;53.282;9.508;2023-02-28T05:14:49;9.68;;;2.83;;
5762;SDS011;2906;53.282;9.508;2023-02-28T05:15:53;10.68;;;3.17;;
5762;SDS011;2906;53.282;9.508;2023-02-28T05:16:54;9.23;;;2.58;;
5762;SDS011;2906;53.282;9.508;2023-02-28T05:17:57;11.50;;;2.95;;
5762;SDS011;2906;53.282;9.508;2023-02-28T05:18:58;11.40;;;2.90;;
5762;SDS011;2906;53.282;9.508;2023-02-28T05:20:01;10.65;;;2.63;;
5762;SDS011;2906;53.282;9.508;2023-02-28T05:21:04;10.70;;;2.95;;
5762;SDS011;2906;53.282;9.508;2023-02-28T05:22:11;10.70;;;2.70;;
5762;SDS011;2906;53.282;9.508;2023-02-28T05:23:13;12.13;;;3.22;;
5762;SDS011;2906;53.282;9.508;2023-02-28T05:24:16;13.20;;;2.80;;
5762;SDS011;2906;53.282;9.508;2023-02-28T05:25:22;10.38;;;3.20;;
5762;SDS011;2906;53.282;9.508;2023-02-28T05:26:27;13.35;;;3.35;;
5762;SDS011;2906;53.282;9.508;2023-02-28T05:27:28;14.02;;;3.60;;
5762;SDS011;2906;53.282;9.508;2023-02-28T05:28:31;12.80;;;3.78;;
5762;SDS011;2906;53.282;9.508;2023-02-28T05:29:33;10.23;;;2.88;;
5762;SDS011;2906;53.282;9.508;2023-02-28T05:30:43;10.68;;;3.42;;
5762;SDS011;2906;53.282;9.508;2023-02-28T05:31:45;12.15;;;3.67;;
5762;SDS011;2906;53.282;9.508;2023-02-28T05:32:49;11.75;;;3.58;;
5762;SDS011;2906;53.282;9.508;2023-02-28T05:33:51;9.18;;;3.17;;
5762;SDS011;2906;53.282;9.508;2023-02-28T05:34:55;15.63;;;4.90;;
5762;SDS011;2906;53.282;9.508;2023-02-28T05:35:56;14.07;;;4.25;;
5762;SDS011;2906;53.282;9.508;2023-02-28T05:36:59;16.73;;;4.85;;
5762;SDS011;2906;53.282;9.508;2023-02-28T05:38:00;13.63;;;4.70;;
5762;SDS011;2906;53.282;9.508;2023-02-28T05:39:02;16.92;;;5.30;;
5762;SDS011;2906;53.282;9.508;2023-02-28T05:40:04;17.85;;;4.95;;
5762;SDS011;2906;53.282;9.508;2023-02-28T05:41:10;18.92;;;5.60;;
5762;SDS011;2906;53.282;9.508;2023-02-28T05:42:13;15.35;;;4.57;;
5762;SDS011;2906;53.282;9.508;2023-02-28T05:43:17;12.93;;;4.53;;
5762;SDS011;2906;53.282;9.508;2023-02-28T05:44:18;13.70;;;4.80;;
5762;SDS011;2906;53.282;9.508;2023-02-28T05:45:22;17.55;;;4.80;;
5762;SDS011;2906;53.282;9.508;2023-02-28T05:46:23;19.58;;;6.57;;
5762;SDS011;2906;53.282;9.508;2023-02-28T05:47:29;16.65;;;5.20;;
5762;SDS011;2906;53.282;9.508;2023-02-28T05:48:31;16.17;;;5.18;;
5762;SDS011;2906;53.282;9.508;2023-02-28T05:49:34;14.95;;;5.03;;
5762;SDS011;2906;53.282;9.508;2023-02-28T05:50:37;12.70;;;4.05;;
5762;SDS011;2906;53.282;9.508;2023-02-28T05:51:38;13.50;;;4.03;;
5762;SDS011;2906;53.282;9.508;2023-02-28T05:52:42;12.27;;;3.35;;
5762;SDS011;2906;53.282;9.508;2023-02-28T05:53:43;11.00;;;3.33;;
5762;SDS011;2906;53.282;9.508;2023-02-28T05:54:48;15.35;;;3.70;;
5762;SDS011;2906;53.282;9.508;2023-02-28T05:55:50;11.63;;;3.20;;
5762;SDS011;2906;53.282;9.508;2023-02-28T05:56:51;11.55;;;3.22;;
5762;SDS011;2906;53.282;9.508;2023-02-28T05:57:56;11.50;;;3.67;;
5762;SDS011;2906;53.282;9.508;2023-02-28T05:58:57;9.30;;;2.85;;
5762;SDS011;2906;53.282;9.508;2023-02-28T06:00:00;15.18;;;3.60;;
5762;SDS011;2906;53.282;9.508;2023-02-28T06:01:18;14.43;;;3.50;;
5762;SDS011;2906;53.282;9.508;2023-02-28T06:02:22;12.90;;;3.50;;
5762;SDS011;2906;53.282;9.508;2023-02-28T06:03:23;12.35;;;3.47;;
5762;SDS011;2906;53.282;9.508;2023-02-28T06:04:26;9.88;;;3.47;;
5762;SDS011;2906;53.282;9.508;2023-02-28T06:05:28;13.07;;;3.67;;
5762;SDS011;2906;53.282;9.508;2023-02-28T06:06:32;11.43;;;3.67;;
5762;SDS011;2906;53.282;9.508;2023-02-28T06:07:34;20.17;;;4.55;;
5762;SDS011;2906;53.282;9.508;2023-02-28T06:08:37;10.10;;;3.10;;
5762;SDS011;2906;53.282;9.508;2023-02-28T06:09:42;12.90;;;3.35;;
5762;SDS011;2906;53.282;9.508;2023-02-28T06:10:44;14.65;;;3.45;;
5762;SDS011;2906;53.282;9.508;2023-02-28T06:11:46;9.40;;;2.90;;
5762;SDS011;2906;53.282;9.508;2023-02-28T06:12:49;14.57;;;3.40;;
5762;SDS011;2906;53.282;9.508;2023-02-28T06:13:54;13.80;;;4.15;;
5762;SDS011;2906;53.282;9.508;2023-02-28T06:14:57;9.60;;;2.92;;
5762;SDS011;2906;53.282;9.508;2023-02-28T06:16:00;11.73;;;3.55;;
5762;SDS011;2906;53.282;9.508;2023-02-28T06:17:03;17.70;;;3.75;;
5762;SDS011;2906;53.282;9.508;2023-02-28T06:18:04;9.93;;;3.40;;
5762;SDS011;2906;53.282;9.508;2023-02-28T06:19:08;13.60;;;4.13;;
5762;SDS011;2906;53.282;9.508;2023-02-28T06:20:16;19.27;;;3.45;;
5762;SDS011;2906;53.282;9.508;2023-02-28T06:21:18;9.45;;;2.85;;
5762;SDS011;2906;53.282;9.508;2023-02-28T06:22:19;14.00;;;3.92;;
5762;SDS011;2906;53.282;9.508;2023-02-28T06:23:23;17.00;;;3.22;;
5762;SDS011;2906;53.282;9.508;2023-02-28T06:24:25;16.45;;;3.83;;
5762;SDS011;2906;53.282;9.508;2023-02-28T06:25:30;9.95;;;3.05;;
5762;SDS011;2906;53.282;9.508;2023-02-28T06:26:32;11.43;;;3.28;;
5762;SDS011;2906;53.282;9.508;2023-02-28T06:27:33;11.05;;;3.42;;
5762;SDS011;2906;53.282;9.508;2023-02-28T06:28:36;11.35;;;3.47;;
5762;SDS011;2906;53.282;9.508;2023-02-28T06:29:39;12.85;;;4.05;;
5762;SDS011;2906;53.282;9.508;2023-02-28T06:30:42;13.20;;;3.85;;
5762;SDS011;2906;53.282;9.508;2023-02-28T06:31:43;12.82;;;3.95;;
5762;SDS011;2906;53.282;9.508;2023-02-28T06:32:46;16.75;;;3.35;;
5762;SDS011;2906;53.282;9.508;2023-02-28T06:33:49;11.25;;;3.35;;
5762;SDS011;2906;53.282;9.508;2023-02-28T06:34:52;9.68;;;3.13;;
5762;SDS011;2906;53.282;9.508;2023-02-28T06:35:53;12.38;;;4.35;;
5762;SDS011;2906;53.282;9.508;2023-02-28T06:36:55;11.93;;;3.50;;
5762;SDS011;2906;53.282;9.508;2023-02-28T06:38:02;11.00;;;3.35;;
5762;SDS011;2906;53.282;9.508;2023-02-28T06:39:04;11.73;;;2.90;;
5762;SDS011;2906;53.282;9.508;2023-02-28T06:40:08;12.38;;;3.45;;